Time;durP1;ratioP1;P1;durP2;ratioP2;P2;SDS_P1;SDS_P2;PMS_P1;PMS_P2;Temp;Humidity;BMP_temperature;BMP_pressure;BME280_temperature;BME280_humidity;BME280_pressure;Samples;Min_cycle;Max_cycle;Signal;HPM_P1;HPM_P2
2023/03/25 00:00:14;;;;;;;;;;;;;;;;;;5144923;27;19911;-43
2023/03/25 00:02:40;;;;;;;;;;;;;;;;;;5134853;27;20368;-43
2023/03/25 00:05:06;;;;;;;;;;;;;;;;;;5150133;27;19911;-43
2023/03/25 00:07:32;;;;;;;;;;;;;;;;;;5155570;27;19914;-43
2023/03/25 00:09:58;;;;;;;;;;;;;;;;;;5146301;27;19959;-43
2023/03/25 00:12:25;;;;;;;;;;;;;;;;;;5136586;27;20252;-44
2023/03/25 00:14:54;;;;;;;;;;;;;;;;;;5140626;27;20052;-43
2023/03/25 00:17:20;;;;;;;;;;;;;;;;;;5135739;27;19908;-43
2023/03/25 00:19:49;;;;;;;;;;;;;;;;;;5155290;27;20009;-43
2023/03/25 00:22:15;;;;;;;;;;;;;;;;;;5142721;27;20040;-43
2023/03/25 00:24:41;;;;;;;;;;;;;;;;;;5147243;27;19960;-43
2023/03/25 00:27:06;;;;;;;;;;;;;;;;;;5152246;27;19911;-43
2023/03/25 00:29:32;;;;;;;;;;;;;;;;;;5148980;27;19942;-43
2023/03/25 00:31:58;;;;;;;;;;;;;;;;;;5136763;27;19934;-43
2023/03/25 00:34:24;;;;;;;;;;;;;;;;;;5134318;27;19996;-43
2023/03/25 00:36:50;;;;;;;;;;;;;;;;;;5134199;27;19914;-43
2023/03/25 00:39:16;;;;;;;;;;;;;;;;;;5134086;27;20746;-45
2023/03/25 00:41:42;;;;;;;;;;;;;;;;;;5134004;27;19908;-43
2023/03/25 00:44:08;;;;;;;;;;;;;;;;;;5136301;27;19912;-43
2023/03/25 00:46:34;;;;;;;;;;;;;;;;;;5152625;27;19968;-43
2023/03/25 00:49:00;;;;;;;;;;;;;;;;;;5153861;27;19926;-43
2023/03/25 00:51:25;;;;;;;;;;;;;;;;;;5154684;27;19956;-43
2023/03/25 00:53:54;;;;;;;;;;;;;;;;;;5152996;27;19964;-44
2023/03/25 00:56:20;;;;;;;;;;;;;;;;;;5153759;27;20026;-44
2023/03/25 00:58:46;;;;;;;;;;;;;;;;;;5154621;27;19969;-43
2023/03/25 01:01:12;;;;;;;;;;;;;;;;;;5146819;27;19927;-43
2023/03/25 01:03:38;;;;;;;;;;;;;;;;;;5139028;27;20049;-47
2023/03/25 01:06:04;;;;;;;;;;;;;;;;;;5132547;27;20201;-44
2023/03/25 01:08:30;;;;;;;;;;;;;;;;;;5125699;27;19965;-43
2023/03/25 01:10:56;;;;;;;;;;;;;;;;;;5137023;27;19933;-47
2023/03/25 01:13:22;;;;;;;;;;;;;;;;;;5153392;27;20271;-43
2023/03/25 01:15:48;;;;;;;;;;;;;;;;;;5141620;27;19960;-43
2023/03/25 01:18:14;;;;;;;;;;;;;;;;;;5148247;27;19993;-45
2023/03/25 01:20:40;;;;;;;;;;;;;;;;;;5134178;27;19915;-43
2023/03/25 01:23:08;;;;;;;;;;;;;;;;;;5131370;27;19912;-43
2023/03/25 01:25:34;;;;;;;;;;;;;;;;;;5132786;27;20329;-45
2023/03/25 01:28:00;;;;;;;;;;;;;;;;;;5146085;27;19907;-43
2023/03/25 01:30:26;;;;;;;;;;;;;;;;;;5153082;27;19914;-43
2023/03/25 01:32:52;;;;;;;;;;;;;;;;;;5132665;27;20272;-43
2023/03/25 01:35:17;;;;;;;;;;;;;;;;;;5139834;27;19915;-43
2023/03/25 01:37:45;;;;;;;;;;;;;;;;;;5153902;27;19914;-43
2023/03/25 01:40:11;;;;;;;;;;;;;;;;;;5152377;27;19943;-44
2023/03/25 01:42:37;;;;;;;;;;;;;;;;;;5153335;27;19954;-43
2023/03/25 01:45:03;;;;;;;;;;;;;;;;;;5152404;27;19907;-43
2023/03/25 01:47:29;;;;;;;;;;;;;;;;;;5153397;27;20264;-43
2023/03/25 01:49:56;;;;;;;;;;;;;;;;;;5152162;27;20404;-43
2023/03/25 01:52:22;;;;;;;;;;;;;;;;;;5151065;27;20018;-43
2023/03/25 01:54:48;;;;;;;;;;;;;;;;;;5136274;27;20006;-43
2023/03/25 01:57:16;;;;;;;;;;;;;;;;;;5144881;27;19939;-43
2023/03/25 01:59:42;;;;;;;;;;;;;;;;;;5144278;27;19993;-43
2023/03/25 02:02:08;;;;;;;;;;;;;;;;;;5141313;27;20002;-44
2023/03/25 02:04:37;;;;;;;;;;;;;;;;;;5153829;27;20407;-44
2023/03/25 02:07:07;;;;;;;;;;;;;;;;;;5152732;27;20391;-43
2023/03/25 02:09:33;;;;;;;;;;;;;;;;;;5153377;27;19915;-43
2023/03/25 02:11:59;;;;;;;;;;;;;;;;;;5151646;27;19930;-43
2023/03/25 02:14:25;;;;;;;;;;;;;;;;;;5134138;27;19911;-43
2023/03/25 02:16:50;;;;;;;;;;;;;;;;;;5132223;27;19915;-45
2023/03/25 02:19:16;;;;;;;;;;;;;;;;;;5132933;27;20297;-45
2023/03/25 02:21:45;;;;;;;;;;;;;;;;;;5132556;28;20356;-45
2023/03/25 02:24:12;;;;;;;;;;;;;;;;;;5131493;27;19935;-43
2023/03/25 02:26:41;;;;;;;;;;;;;;;;;;5132881;28;19908;-44
2023/03/25 02:29:07;;;;;;;;;;;;;;;;;;5132144;28;19965;-43
2023/03/25 02:31:33;;;;;;;;;;;;;;;;;;5132882;28;20255;-45
2023/03/25 02:33:59;;;;;;;;;;;;;;;;;;5132178;28;19952;-44
2023/03/25 02:36:29;;;;;;;;;;;;;;;;;;5143155;27;20370;-43
2023/03/25 02:38:54;;;;;;;;;;;;;;;;;;5132139;27;19912;-44
2023/03/25 02:41:20;;;;;;;;;;;;;;;;;;5132348;27;19926;-43
2023/03/25 02:43:46;;;;;;;;;;;;;;;;;;5131624;27;19956;-43
2023/03/25 02:46:12;;;;;;;;;;;;;;;;;;5132454;27;20701;-45
2023/03/25 02:48:38;;;;;;;;;;;;;;;;;;5139641;27;19920;-43
2023/03/25 02:51:04;;;;;;;;;;;;;;;;;;5116324;27;19915;-45
2023/03/25 02:53:32;;;;;;;;;;;;;;;;;;5123792;27;19939;-43
2023/03/25 02:55:58;;;;;;;;;;;;;;;;;;5114596;27;19908;-42
2023/03/25 02:58:23;;;;;;;;;;;;;;;;;;5115356;27;19911;-44
2023/03/25 03:00:50;;;;;;;;;;;;;;;;;;5114990;28;19953;-43
2023/03/25 03:03:16;;;;;;;;;;;;;;;;;;5114728;27;19912;-43
2023/03/25 03:05:42;;;;;;;;;;;;;;;;;;5125700;27;19915;-44
2023/03/25 03:08:08;;;;;;;;;;;;;;;;;;5117205;27;19908;-43
2023/03/25 03:10:34;;;;;;;;;;;;;;;;;;5114677;28;20373;-43
2023/03/25 03:13:00;;;;;;;;;;;;;;;;;;5120795;27;19918;-43
2023/03/25 03:15:26;;;;;;;;;;;;;;;;;;5123101;27;19908;-43
2023/03/25 03:17:52;;;;;;;;;;;;;;;;;;5115283;28;19908;-43
2023/03/25 03:20:18;;;;;;;;;;;;;;;;;;5114121;28;19915;-44
2023/03/25 03:22:44;;;;;;;;;;;;;;;;;;5115146;27;20263;-43
2023/03/25 03:25:09;;;;;;;;;;;;;;;;;;5113790;28;19989;-43
2023/03/25 03:27:35;;;;;;;;;;;;;;;;;;5114945;28;19908;-43
2023/03/25 03:30:03;;;;;;;;;;;;;;;;;;5121345;27;19924;-43
2023/03/25 03:32:29;;;;;;;;;;;;;;;;;;5115251;28;19915;-42
2023/03/25 03:34:55;;;;;;;;;;;;;;;;;;5114239;28;19912;-45
2023/03/25 03:37:21;;;;;;;;;;;;;;;;;;5114639;28;19961;-44
2023/03/25 03:39:47;;;;;;;;;;;;;;;;;;5115306;28;20302;-46
2023/03/25 03:42:13;;;;;;;;;;;;;;;;;;5116597;27;19959;-45
2023/03/25 03:44:39;;;;;;;;;;;;;;;;;;5136048;27;19913;-44
2023/03/25 03:47:05;;;;;;;;;;;;;;;;;;5134392;27;19998;-43
2023/03/25 03:49:31;;;;;;;;;;;;;;;;;;5152927;27;20018;-47
2023/03/25 03:51:56;;;;;;;;;;;;;;;;;;5139093;27;19951;-43
2023/03/25 03:54:22;;;;;;;;;;;;;;;;;;5135265;27;19956;-43
2023/03/25 03:56:52;;;;;;;;;;;;;;;;;;5135018;27;19930;-45
2023/03/25 03:59:17;;;;;;;;;;;;;;;;;;5134267;27;19957;-43
2023/03/25 04:01:45;;;;;;;;;;;;;;;;;;5134831;27;20356;-45
2023/03/25 04:04:11;;;;;;;;;;;;;;;;;;5134323;27;19907;-43
2023/03/25 04:06:37;;;;;;;;;;;;;;;;;;5135186;27;20041;-43
2023/03/25 04:09:04;;;;;;;;;;;;;;;;;;5137392;27;19919;-43
2023/03/25 04:11:30;;;;;;;;;;;;;;;;;;5146090;27;19955;-43
2023/03/25 04:13:56;;;;;;;;;;;;;;;;;;5134536;27;19915;-44
2023/03/25 04:16:23;;;;;;;;;;;;;;;;;;5137914;27;19926;-43
2023/03/25 04:18:52;;;;;;;;;;;;;;;;;;5134785;27;20040;-43
2023/03/25 04:21:18;;;;;;;;;;;;;;;;;;5141544;27;19911;-43
2023/03/25 04:23:45;;;;;;;;;;;;;;;;;;5143765;27;19921;-44
2023/03/25 04:26:11;;;;;;;;;;;;;;;;;;5133301;27;19907;-43
2023/03/25 04:28:37;;;;;;;;;;;;;;;;;;5134325;27;19916;-43
2023/03/25 04:31:05;;;;;;;;;;;;;;;;;;5133897;27;19912;-43
2023/03/25 04:33:31;;;;;;;;;;;;;;;;;;5134553;27;20019;-45
2023/03/25 04:35:56;;;;;;;;;;;;;;;;;;5132820;27;19928;-43
2023/03/25 04:38:22;;;;;;;;;;;;;;;;;;5134330;27;19908;-44
2023/03/25 04:40:48;;;;;;;;;;;;;;;;;;5133900;27;19907;-45
2023/03/25 04:43:14;;;;;;;;;;;;;;;;;;5133021;27;19919;-43
2023/03/25 04:45:48;;;;;;;;;;;;;;;;;;5133752;27;19930;-46
2023/03/25 04:48:13;;;;;;;;;;;;;;;;;;5132794;27;20002;-43
2023/03/25 04:50:39;;;;;;;;;;;;;;;;;;5153492;27;20404;-44
2023/03/25 04:53:05;;;;;;;;;;;;;;;;;;5153850;27;19907;-43
2023/03/25 04:55:33;;;;;;;;;;;;;;;;;;5154145;27;19911;-43
2023/03/25 04:57:59;;;;;;;;;;;;;;;;;;5153522;27;19908;-44
2023/03/25 05:00:25;;;;;;;;;;;;;;;;;;5153659;27;19911;-43
2023/03/25 05:02:51;;;;;;;;;;;;;;;;;;5154240;27;19910;-43
2023/03/25 05:05:19;;;;;;;;;;;;;;;;;;5141875;27;20694;-44
2023/03/25 05:07:45;;;;;;;;;;;;;;;;;;5145445;27;19913;-43
2023/03/25 05:10:11;;;;;;;;;;;;;;;;;;5142629;27;20321;-43
2023/03/25 05:12:37;;;;;;;;;;;;;;;;;;5150727;27;19918;-44
2023/03/25 05:15:03;;;;;;;;;;;;;;;;;;5152675;27;19914;-44
2023/03/25 05:17:29;;;;;;;;;;;;;;;;;;5154632;27;20005;-45
2023/03/25 05:19:55;;;;;;;;;;;;;;;;;;5153878;27;20275;-44
2023/03/25 05:22:21;;;;;;;;;;;;;;;;;;5134596;27;19955;-47
2023/03/25 05:24:47;;;;;;;;;;;;;;;;;;5133618;27;19911;-48
2023/03/25 05:27:13;;;;;;;;;;;;;;;;;;5147864;27;20045;-44
2023/03/25 05:29:39;;;;;;;;;;;;;;;;;;5154470;27;19911;-49
2023/03/25 05:32:05;;;;;;;;;;;;;;;;;;5152809;27;20352;-48
2023/03/25 05:34:31;;;;;;;;;;;;;;;;;;5154406;27;19995;-46
2023/03/25 05:36:57;;;;;;;;;;;;;;;;;;5153016;27;19984;-47
2023/03/25 05:39:24;;;;;;;;;;;;;;;;;;5146383;27;19918;-44
2023/03/25 05:41:54;;;;;;;;;;;;;;;;;;5147527;27;20291;-44
2023/03/25 05:44:20;;;;;;;;;;;;;;;;;;5148644;27;19915;-49
2023/03/25 05:46:46;;;;;;;;;;;;;;;;;;5153738;27;19966;-47
2023/03/25 05:49:12;;;;;;;;;;;;;;;;;;5152749;27;20043;-45
2023/03/25 05:51:38;;;;;;;;;;;;;;;;;;5153489;27;20025;-48
2023/03/25 05:54:09;;;;;;;;;;;;;;;;;;5153775;27;19920;-46
2023/03/25 05:56:35;;;;;;;;;;;;;;;;;;5153421;27;20429;-45
2023/03/25 05:59:02;;;;;;;;;;;;;;;;;;5147429;27;19982;-45
2023/03/25 06:01:28;;;;;;;;;;;;;;;;;;5139703;27;19912;-43
2023/03/25 06:03:54;;;;;;;;;;;;;;;;;;5132631;27;20281;-43
2023/03/25 06:06:20;;;;;;;;;;;;;;;;;;5132231;27;19961;-42
2023/03/25 06:08:46;;;;;;;;;;;;;;;;;;5139143;27;19919;-43
2023/03/25 06:11:15;;;;;;;;;;;;;;;;;;5152147;27;19915;-43
2023/03/25 06:13:41;;;;;;;;;;;;;;;;;;5134849;27;20001;-44
2023/03/25 06:16:08;;;;;;;;;;;;;;;;;;5134903;27;20416;-46
2023/03/25 06:18:34;;;;;;;;;;;;;;;;;;5138486;27;19908;-43
2023/03/25 06:21:00;;;;;;;;;;;;;;;;;;5142125;27;19919;-46
2023/03/25 06:23:26;;;;;;;;;;;;;;;;;;5132723;27;20006;-42
2023/03/25 06:25:52;;;;;;;;;;;;;;;;;;5148767;27;19911;-44
2023/03/25 06:28:18;;;;;;;;;;;;;;;;;;5154075;27;19907;-43
2023/03/25 06:30:44;;;;;;;;;;;;;;;;;;5140563;27;19998;-43
2023/03/25 06:33:10;;;;;;;;;;;;;;;;;;5146929;27;19951;-43
2023/03/25 06:35:36;;;;;;;;;;;;;;;;;;5140477;27;19942;-43
2023/03/25 06:38:02;;;;;;;;;;;;;;;;;;5155869;27;20398;-43
2023/03/25 06:40:28;;;;;;;;;;;;;;;;;;5156391;27;19998;-43
2023/03/25 06:42:54;;;;;;;;;;;;;;;;;;5156961;27;19939;-44
2023/03/25 06:45:20;;;;;;;;;;;;;;;;;;5155133;27;19911;-43
2023/03/25 06:47:46;;;;;;;;;;;;;;;;;;5148727;27;19919;-43
2023/03/25 06:50:12;;;;;;;;;;;;;;;;;;5146414;27;19945;-43
2023/03/25 06:52:37;;;;;;;;;;;;;;;;;;5140587;27;19932;-43
2023/03/25 06:55:03;;;;;;;;;;;;;;;;;;5136855;27;19968;-46
2023/03/25 06:57:29;;;;;;;;;;;;;;;;;;5129895;27;19907;-43
2023/03/25 06:59:55;;;;;;;;;;;;;;;;;;5170673;27;19957;-43
2023/03/25 07:02:21;;;;;;;;;;;;;;;;;;5173759;27;19906;-46
2023/03/25 07:04:47;;;;;;;;;;;;;;;;;;5157178;27;19907;-47
2023/03/25 07:07:13;;;;;;;;;;;;;;;;;;5156242;27;19918;-48
2023/03/25 07:09:39;;;;;;;;;;;;;;;;;;5157006;27;19983;-43
2023/03/25 07:12:05;;;;;;;;;;;;;;;;;;5155598;27;19963;-44
2023/03/25 07:14:30;;;;;;;;;;;;;;;;;;5138216;27;20006;-47
2023/03/25 07:16:56;;;;;;;;;;;;;;;;;;5153691;27;20263;-44
2023/03/25 07:19:22;;;;;;;;;;;;;;;;;;5156968;27;20387;-45
2023/03/25 07:21:48;;;;;;;;;;;;;;;;;;5155361;27;20353;-45
2023/03/25 07:24:14;;;;;;;;;;;;;;;;;;5126787;27;19938;-44
2023/03/25 07:26:40;;;;;;;;;;;;;;;;;;5127747;27;20368;-46
2023/03/25 07:29:06;;;;;;;;;;;;;;;;;;5145837;27;19927;-48
2023/03/25 07:31:32;;;;;;;;;;;;;;;;;;5147654;27;19953;-48
2023/03/25 07:33:58;;;;;;;;;;;;;;;;;;5144383;27;19915;-46
2023/03/25 07:36:25;;;;;;;;;;;;;;;;;;5133860;27;19915;-44
2023/03/25 07:38:54;;;;;;;;;;;;;;;;;;5144781;27;19990;-44
2023/03/25 07:41:20;;;;;;;;;;;;;;;;;;5151705;27;19937;-43
2023/03/25 07:43:46;;;;;;;;;;;;;;;;;;5151811;27;19907;-42
2023/03/25 07:46:12;;;;;;;;;;;;;;;;;;5130967;27;19912;-43
2023/03/25 07:48:41;;;;;;;;;;;;;;;;;;5136316;27;19962;-43
2023/03/25 07:51:07;;;;;;;;;;;;;;;;;;5151881;27;19907;-45
2023/03/25 07:53:33;;;;;;;;;;;;;;;;;;5155151;27;19946;-43
2023/03/25 07:55:59;;;;;;;;;;;;;;;;;;5151837;27;20056;-45
2023/03/25 07:58:25;;;;;;;;;;;;;;;;;;5155370;27;20045;-43
2023/03/25 08:00:51;;;;;;;;;;;;;;;;;;5134876;27;20265;-43
2023/03/25 08:03:17;;;;;;;;;;;;;;;;;;5133218;27;19912;-43
2023/03/25 08:05:43;;;;;;;;;;;;;;;;;;5142104;27;19950;-43
2023/03/25 08:08:09;;;;;;;;;;;;;;;;;;5137299;27;19922;-43
2023/03/25 08:10:35;;;;;;;;;;;;;;;;;;5131788;27;19980;-45
2023/03/25 08:13:00;;;;;;;;;;;;;;;;;;5133680;27;19978;-43
2023/03/25 08:15:26;;;;;;;;;;;;;;;;;;5133031;27;19907;-44
2023/03/25 08:17:52;;;;;;;;;;;;;;;;;;5133567;27;19911;-49
2023/03/25 08:20:18;;;;;;;;;;;;;;;;;;5134880;27;19911;-47
2023/03/25 08:22:44;;;;;;;;;;;;;;;;;;5133622;27;19922;-42
2023/03/25 08:25:10;;;;;;;;;;;;;;;;;;5114420;27;19911;-48
2023/03/25 08:27:36;;;;;;;;;;;;;;;;;;5133759;27;19907;-49
2023/03/25 08:30:03;;;;;;;;;;;;;;;;;;5132909;27;19916;-51
2023/03/25 08:32:29;;;;;;;;;;;;;;;;;;5145233;27;19912;-51
2023/03/25 08:34:55;;;;;;;;;;;;;;;;;;5132201;27;19965;-48
2023/03/25 08:37:22;;;;;;;;;;;;;;;;;;5132827;27;20376;-49
2023/03/25 08:39:49;;;;;;;;;;;;;;;;;;5132405;27;20019;-51
2023/03/25 08:42:15;;;;;;;;;;;;;;;;;;5131651;27;19959;-54
2023/03/25 08:44:40;;;;;;;;;;;;;;;;;;5139549;27;20416;-51
2023/03/25 08:47:06;;;;;;;;;;;;;;;;;;5153183;27;19911;-50
2023/03/25 08:49:32;;;;;;;;;;;;;;;;;;5145135;27;19933;-50
2023/03/25 08:51:59;;;;;;;;;;;;;;;;;;5132005;27;19915;-53
2023/03/25 08:54:26;;;;;;;;;;;;;;;;;;5132027;27;19915;-53
2023/03/25 08:56:52;;;;;;;;;;;;;;;;;;5132715;27;20275;-53
2023/03/25 08:59:17;;;;;;;;;;;;;;;;;;5131052;27;19926;-52
2023/03/25 09:01:43;;;;;;;;;;;;;;;;;;5130757;27;19919;-53
2023/03/25 09:04:12;;;;;;;;;;;;;;;;;;5153084;27;19919;-51
2023/03/25 09:06:38;;;;;;;;;;;;;;;;;;5154322;27;19986;-47
2023/03/25 09:09:04;;;;;;;;;;;;;;;;;;5149530;27;20005;-54
2023/03/25 09:11:30;;;;;;;;;;;;;;;;;;5132246;27;19912;-51
2023/03/25 09:13:56;;;;;;;;;;;;;;;;;;5145829;27;19999;-50
2023/03/25 09:16:22;;;;;;;;;;;;;;;;;;5142824;27;19912;-54
2023/03/25 09:18:47;;;;;;;;;;;;;;;;;;5153622;27;19908;-54
2023/03/25 09:21:13;;;;;;;;;;;;;;;;;;5131980;27;19903;-49
2023/03/25 09:23:40;;;;;;;;;;;;;;;;;;5132274;27;19907;-53
2023/03/25 09:26:05;;;;;;;;;;;;;;;;;;5149376;27;20416;-51
2023/03/25 09:28:31;;;;;;;;;;;;;;;;;;5148989;27;19914;-47
2023/03/25 09:30:57;;;;;;;;;;;;;;;;;;5148484;27;19912;-50
2023/03/25 09:33:23;;;;;;;;;;;;;;;;;;5137653;27;19939;-48
2023/03/25 09:35:49;;;;;;;;;;;;;;;;;;5131459;27;19961;-52
2023/03/25 09:38:15;;;;;;;;;;;;;;;;;;5130486;27;19907;-53
2023/03/25 09:40:41;;;;;;;;;;;;;;;;;;5130716;27;19918;-50
2023/03/25 09:43:07;;;;;;;;;;;;;;;;;;5131588;27;20368;-54
2023/03/25 09:45:33;;;;;;;;;;;;;;;;;;5130805;27;19915;-51
2023/03/25 09:47:59;;;;;;;;;;;;;;;;;;5131013;27;19920;-52
2023/03/25 09:50:25;;;;;;;;;;;;;;;;;;5129517;27;19930;-50
2023/03/25 09:52:51;;;;;;;;;;;;;;;;;;5130357;27;19908;-49
2023/03/25 09:55:17;;;;;;;;;;;;;;;;;;5116546;27;20470;-51
2023/03/25 09:57:42;;;;;;;;;;;;;;;;;;5136377;27;20001;-53
2023/03/25 10:00:09;;;;;;;;;;;;;;;;;;5132239;27;19960;-54
2023/03/25 10:02:37;;;;;;;;;;;;;;;;;;5142396;27;19907;-56
2023/03/25 10:05:03;;;;;;;;;;;;;;;;;;5145123;27;19907;-53
2023/03/25 10:07:29;;;;;;;;;;;;;;;;;;5142430;27;19918;-55
2023/03/25 10:09:55;;;;;;;;;;;;;;;;;;5129890;27;19942;-55
2023/03/25 10:12:21;;;;;;;;;;;;;;;;;;5140511;27;19916;-54
2023/03/25 10:14:47;;;;;;;;;;;;;;;;;;5138535;27;19911;-55
2023/03/25 10:17:13;;;;;;;;;;;;;;;;;;5130291;27;19908;-54
2023/03/25 10:19:39;;;;;;;;;;;;;;;;;;5145025;27;20405;-55
2023/03/25 10:22:05;;;;;;;;;;;;;;;;;;5138038;27;19961;-57
2023/03/25 10:24:31;;;;;;;;;;;;;;;;;;5145199;27;20299;-53
2023/03/25 10:26:57;;;;;;;;;;;;;;;;;;5130638;27;19962;-54
2023/03/25 10:29:23;;;;;;;;;;;;;;;;;;5133460;27;19915;-56
2023/03/25 10:31:49;;;;;;;;;;;;;;;;;;5145374;27;19939;-54
2023/03/25 10:34:15;;;;;;;;;;;;;;;;;;5141919;27;19907;-54
2023/03/25 10:36:40;;;;;;;;;;;;;;;;;;5132824;28;19918;-52
2023/03/25 10:39:06;;;;;;;;;;;;;;;;;;5131793;28;19907;-52
2023/03/25 10:41:34;;;;;;;;;;;;;;;;;;5132313;28;20327;-52
2023/03/25 10:44:00;;;;;;;;;;;;;;;;;;5131855;28;19986;-54
2023/03/25 10:46:26;;;;;;;;;;;;;;;;;;5131309;27;19970;-53
2023/03/25 10:48:52;;;;;;;;;;;;;;;;;;5132892;27;19929;-49
2023/03/25 10:51:18;;;;;;;;;;;;;;;;;;5151257;27;19907;-51
2023/03/25 10:53:44;;;;;;;;;;;;;;;;;;5153678;27;20348;-52
2023/03/25 10:56:10;;;;;;;;;;;;;;;;;;5152059;27;19908;-53
2023/03/25 10:58:36;;;;;;;;;;;;;;;;;;5149934;27;20360;-50
2023/03/25 11:01:02;;;;;;;;;;;;;;;;;;5130779;27;19919;-53
2023/03/25 11:03:28;;;;;;;;;;;;;;;;;;5132604;28;19908;-51
2023/03/25 11:05:54;;;;;;;;;;;;;;;;;;5131735;27;20398;-50
2023/03/25 11:08:23;;;;;;;;;;;;;;;;;;5143306;27;19911;-53
2023/03/25 11:10:54;;;;;;;;;;;;;;;;;;5140579;27;20075;-54
2023/03/25 11:13:21;;;;;;;;;;;;;;;;;;5141582;27;19912;-52
2023/03/25 11:15:47;;;;;;;;;;;;;;;;;;5137432;27;20347;-49
2023/03/25 11:18:13;;;;;;;;;;;;;;;;;;5139731;27;19921;-51
2023/03/25 11:20:39;;;;;;;;;;;;;;;;;;5135475;27;19908;-53
2023/03/25 11:23:04;;;;;;;;;;;;;;;;;;5135014;27;19911;-53
2023/03/25 11:25:31;;;;;;;;;;;;;;;;;;5135100;27;20329;-49
2023/03/25 11:27:56;;;;;;;;;;;;;;;;;;5134551;27;19907;-53
2023/03/25 11:30:22;;;;;;;;;;;;;;;;;;5134304;27;20014;-55
2023/03/25 11:32:48;;;;;;;;;;;;;;;;;;5135321;27;20287;-54
2023/03/25 11:35:14;;;;;;;;;;;;;;;;;;5134396;27;19915;-49
2023/03/25 11:37:40;;;;;;;;;;;;;;;;;;5135635;27;20284;-53
2023/03/25 11:40:06;;;;;;;;;;;;;;;;;;5133919;27;19912;-51
2023/03/25 11:42:32;;;;;;;;;;;;;;;;;;5135389;27;19907;-54
2023/03/25 11:44:58;;;;;;;;;;;;;;;;;;5134446;27;19998;-50
2023/03/25 11:47:24;;;;;;;;;;;;;;;;;;5131516;27;19949;-57
2023/03/25 11:49:50;;;;;;;;;;;;;;;;;;5124082;27;19920;-54
2023/03/25 11:52:16;;;;;;;;;;;;;;;;;;5128100;27;19956;-55
2023/03/25 11:54:42;;;;;;;;;;;;;;;;;;5134805;27;19915;-51
2023/03/25 11:57:08;;;;;;;;;;;;;;;;;;5127255;27;19911;-57
2023/03/25 11:59:34;;;;;;;;;;;;;;;;;;5124036;27;19916;-57
2023/03/25 12:02:00;;;;;;;;;;;;;;;;;;5115971;27;19912;-57
2023/03/25 12:04:26;;;;;;;;;;;;;;;;;;5120572;27;19911;-58
2023/03/25 12:06:52;;;;;;;;;;;;;;;;;;5128836;27;19910;-54
2023/03/25 12:09:18;;;;;;;;;;;;;;;;;;5131698;27;19959;-56
2023/03/25 12:11:44;;;;;;;;;;;;;;;;;;5133936;27;19930;-54
2023/03/25 12:14:10;;;;;;;;;;;;;;;;;;5134326;27;19904;-56
2023/03/25 12:16:36;;;;;;;;;;;;;;;;;;5133097;27;20347;-56
2023/03/25 12:19:02;;;;;;;;;;;;;;;;;;5134113;27;19908;-58
2023/03/25 12:21:30;;;;;;;;;;;;;;;;;;5131834;27;19903;-56
2023/03/25 12:23:56;;;;;;;;;;;;;;;;;;5131888;27;19904;-53
2023/03/25 12:26:22;;;;;;;;;;;;;;;;;;5132838;27;19907;-55
2023/03/25 12:28:48;;;;;;;;;;;;;;;;;;5129324;27;20513;-57
2023/03/25 12:31:14;;;;;;;;;;;;;;;;;;5122507;27;19921;-58
2023/03/25 12:33:40;;;;;;;;;;;;;;;;;;5133157;27;20380;-58
2023/03/25 12:36:06;;;;;;;;;;;;;;;;;;5131971;27;19957;-58
2023/03/25 12:38:33;;;;;;;;;;;;;;;;;;5134486;27;19980;-58
2023/03/25 12:40:58;;;;;;;;;;;;;;;;;;5127762;27;19922;-58
2023/03/25 12:43:24;;;;;;;;;;;;;;;;;;5133634;27;19911;-58
2023/03/25 12:45:50;;;;;;;;;;;;;;;;;;5131898;27;19915;-58
2023/03/25 12:48:16;;;;;;;;;;;;;;;;;;5133135;27;19920;-56
2023/03/25 12:50:42;;;;;;;;;;;;;;;;;;5135849;27;19915;-56
2023/03/25 12:53:08;;;;;;;;;;;;;;;;;;5153760;27;19953;-56
2023/03/25 12:55:34;;;;;;;;;;;;;;;;;;5151345;27;19940;-58
2023/03/25 12:58:00;;;;;;;;;;;;;;;;;;5139013;27;19911;-58
2023/03/25 13:00:26;;;;;;;;;;;;;;;;;;5136526;27;20002;-58
2023/03/25 13:02:53;;;;;;;;;;;;;;;;;;5154039;27;19939;-57
2023/03/25 13:05:21;;;;;;;;;;;;;;;;;;5153190;27;19921;-58
2023/03/25 13:07:47;;;;;;;;;;;;;;;;;;5133277;27;19912;-58
2023/03/25 13:10:13;;;;;;;;;;;;;;;;;;5132489;27;20310;-58
2023/03/25 13:12:39;;;;;;;;;;;;;;;;;;5137344;27;20360;-58
2023/03/25 13:15:08;;;;;;;;;;;;;;;;;;5152555;27;19918;-58
2023/03/25 13:17:34;;;;;;;;;;;;;;;;;;5149374;27;19915;-58
2023/03/25 13:20:00;;;;;;;;;;;;;;;;;;5153038;27;20006;-58
2023/03/25 13:22:26;;;;;;;;;;;;;;;;;;5134947;27;19955;-58
2023/03/25 13:24:52;;;;;;;;;;;;;;;;;;5133361;27;19960;-57
2023/03/25 13:27:18;;;;;;;;;;;;;;;;;;5132546;27;19907;-58
2023/03/25 13:29:44;;;;;;;;;;;;;;;;;;5145038;27;19926;-58
2023/03/25 13:32:13;;;;;;;;;;;;;;;;;;5136227;27;19942;-58
2023/03/25 13:34:40;;;;;;;;;;;;;;;;;;5142337;27;19919;-58
2023/03/25 13:37:05;;;;;;;;;;;;;;;;;;5130175;27;19914;-58
2023/03/25 13:39:34;;;;;;;;;;;;;;;;;;5132699;27;19908;-58
2023/03/25 13:42:00;;;;;;;;;;;;;;;;;;5130972;27;19907;-58
2023/03/25 13:44:26;;;;;;;;;;;;;;;;;;5132645;27;19914;-57
2023/03/25 13:46:52;;;;;;;;;;;;;;;;;;5131867;27;19950;-57
2023/03/25 13:49:18;;;;;;;;;;;;;;;;;;5146561;27;19919;-58
2023/03/25 13:51:44;;;;;;;;;;;;;;;;;;5147827;27;19964;-58
2023/03/25 13:54:10;;;;;;;;;;;;;;;;;;5152567;27;19914;-58
2023/03/25 13:56:36;;;;;;;;;;;;;;;;;;5151724;27;20333;-58
2023/03/25 13:59:01;;;;;;;;;;;;;;;;;;5126305;28;19950;-58
2023/03/25 14:01:27;;;;;;;;;;;;;;;;;;5136713;27;19915;-58
2023/03/25 14:03:53;;;;;;;;;;;;;;;;;;5145309;27;19960;-54
2023/03/25 14:06:19;;;;;;;;;;;;;;;;;;5132588;27;19961;-57
2023/03/25 14:08:45;;;;;;;;;;;;;;;;;;5143338;27;19914;-57
2023/03/25 14:11:11;;;;;;;;;;;;;;;;;;5136336;27;19907;-57
2023/03/25 14:13:37;;;;;;;;;;;;;;;;;;5144639;27;19915;-56
2023/03/25 14:16:03;;;;;;;;;;;;;;;;;;5130359;27;19982;-58
2023/03/25 14:18:30;;;;;;;;;;;;;;;;;;5139716;27;19907;-57
2023/03/25 14:20:56;;;;;;;;;;;;;;;;;;5150347;27;19907;-58
2023/03/25 14:23:23;;;;;;;;;;;;;;;;;;5152899;27;19907;-58
2023/03/25 14:25:49;;;;;;;;;;;;;;;;;;5147468;27;19911;-57
2023/03/25 14:28:15;;;;;;;;;;;;;;;;;;5130900;27;19915;-57
2023/03/25 14:30:42;;;;;;;;;;;;;;;;;;5129077;27;19920;-58
2023/03/25 14:33:08;;;;;;;;;;;;;;;;;;5132153;27;19942;-58
2023/03/25 14:35:37;;;;;;;;;;;;;;;;;;5132212;27;20035;-58
2023/03/25 14:38:03;;;;;;;;;;;;;;;;;;5131418;27;19915;-57
2023/03/25 14:40:29;;;;;;;;;;;;;;;;;;5132478;27;19908;-57
2023/03/25 14:42:56;;;;;;;;;;;;;;;;;;5151825;27;20339;-55
2023/03/25 14:45:23;;;;;;;;;;;;;;;;;;5150513;27;20011;-57
2023/03/25 14:47:49;;;;;;;;;;;;;;;;;;5134829;27;20270;-58
2023/03/25 14:50:15;;;;;;;;;;;;;;;;;;5152152;27;19927;-58
2023/03/25 14:52:41;;;;;;;;;;;;;;;;;;5136646;27;19952;-58
2023/03/25 14:55:07;;;;;;;;;;;;;;;;;;5147473;27;19914;-58
2023/03/25 14:57:33;;;;;;;;;;;;;;;;;;5155473;27;19907;-58
2023/03/25 15:00:00;;;;;;;;;;;;;;;;;;5150075;27;19911;-58
2023/03/25 15:02:27;;;;;;;;;;;;;;;;;;5142851;27;19911;-57
2023/03/25 15:04:53;;;;;;;;;;;;;;;;;;5145829;27;19903;-55
2023/03/25 15:07:19;;;;;;;;;;;;;;;;;;5152503;27;19913;-54
2023/03/25 15:09:45;;;;;;;;;;;;;;;;;;5138778;27;19998;-55
2023/03/25 15:12:10;;;;;;;;;;;;;;;;;;5143307;27;20048;-55
2023/03/25 15:14:36;;;;;;;;;;;;;;;;;;5146444;27;19903;-52
2023/03/25 15:17:04;;;;;;;;;;;;;;;;;;5146655;27;20359;-52
2023/03/25 15:19:30;;;;;;;;;;;;;;;;;;5156197;27;19907;-50
2023/03/25 15:21:56;;;;;;;;;;;;;;;;;;5155392;27;19932;-53
2023/03/25 15:24:21;;;;;;;;;;;;;;;;;;5156041;27;20007;-50
2023/03/25 15:26:47;;;;;;;;;;;;;;;;;;5155693;27;20351;-48
2023/03/25 15:29:13;;;;;;;;;;;;;;;;;;5146815;27;19943;-49
2023/03/25 15:31:39;;;;;;;;;;;;;;;;;;5146000;27;19946;-48
2023/03/25 15:34:05;;;;;;;;;;;;;;;;;;5136916;27;19914;-51
2023/03/25 15:36:31;;;;;;;;;;;;;;;;;;5128073;27;19917;-53
2023/03/25 15:38:57;;;;;;;;;;;;;;;;;;5149046;27;19912;-53
2023/03/25 15:41:23;;;;;;;;;;;;;;;;;;5147039;27;20279;-53
2023/03/25 15:43:49;;;;;;;;;;;;;;;;;;5156016;27;20367;-55
2023/03/25 15:46:15;;;;;;;;;;;;;;;;;;5152429;27;20385;-56
2023/03/25 15:48:41;;;;;;;;;;;;;;;;;;5155245;27;19919;-55
2023/03/25 15:51:07;;;;;;;;;;;;;;;;;;5163632;27;19923;-54
2023/03/25 15:53:32;;;;;;;;;;;;;;;;;;5152870;27;19914;-54
2023/03/25 15:55:58;;;;;;;;;;;;;;;;;;5154792;27;19911;-54
2023/03/25 15:58:24;;;;;;;;;;;;;;;;;;5155165;27;19912;-54
2023/03/25 16:00:50;;;;;;;;;;;;;;;;;;5153355;27;19911;-56
2023/03/25 16:03:16;;;;;;;;;;;;;;;;;;5155684;27;19955;-56
2023/03/25 16:05:42;;;;;;;;;;;;;;;;;;5155529;27;19907;-52
2023/03/25 16:08:08;;;;;;;;;;;;;;;;;;5154979;27;19961;-54
2023/03/25 16:10:38;;;;;;;;;;;;;;;;;;5142480;27;19948;-53
2023/03/25 16:13:04;;;;;;;;;;;;;;;;;;5146099;27;19965;-54
2023/03/25 16:15:30;;;;;;;;;;;;;;;;;;5137524;27;19999;-53
2023/03/25 16:17:56;;;;;;;;;;;;;;;;;;5149905;27;19913;-56
2023/03/25 16:20:21;;;;;;;;;;;;;;;;;;5154349;27;19911;-54
2023/03/25 16:22:48;;;;;;;;;;;;;;;;;;5151537;27;19911;-55
2023/03/25 16:25:14;;;;;;;;;;;;;;;;;;5148840;27;19933;-55
2023/03/25 16:27:40;;;;;;;;;;;;;;;;;;5150312;27;20380;-54
2023/03/25 16:30:06;;;;;;;;;;;;;;;;;;5148205;27;19911;-57
2023/03/25 16:32:32;;;;;;;;;;;;;;;;;;5149460;27;20355;-58
2023/03/25 16:34:58;;;;;;;;;;;;;;;;;;5150147;27;19952;-56
2023/03/25 16:37:24;;;;;;;;;;;;;;;;;;5149330;27;19919;-56